Shelter Cove, California
Current Conditions -  °F | °C
As of 12:35 AM on Monday 22 Dec 2014 (Local Time) from KFOT Reporting Station
Overcast Overcast  
Wind Chill: 55°   Ceiling: 200
Heat Index: 55°   Visibility: 0.25mi
Dew Point: 55°   Wind: 5mph
Humidity: 100%   Direction: 310°NW
Pressure: 30.35"   Gusts: NA
Location:  40.03°N, 124.07°W
Report Text: KFOT 220835Z AUTO 31004KT 1/4SM OVC002 13/13 A3035 RMK AO1
Loading
Personal Weather Stations






























Interactive Weather Map New forecast layout! Learn more

10-Day Weather Forecast

Advertisements
Track Severe Weather on mobile